createdAt,value
2018-04-14T00:01:15.905Z,91.70
2018-04-14T00:03:43.411Z,91.70
2018-04-14T00:06:10.922Z,91.90
2018-04-14T00:08:38.430Z,91.90
2018-04-14T00:11:05.961Z,91.30
2018-04-14T00:13:33.477Z,91.30
2018-04-14T00:16:01.396Z,91.70
2018-04-14T00:18:28.950Z,91.70
2018-04-14T00:20:56.553Z,90.90
2018-04-14T00:23:24.543Z,91.50
2018-04-14T00:25:52.456Z,91.80
2018-04-14T00:28:19.951Z,91.80
2018-04-14T00:30:47.484Z,91.60
2018-04-14T00:33:14.997Z,91.40
2018-04-14T00:35:42.927Z,91.20
2018-04-14T00:38:10.455Z,91.20
2018-04-14T00:40:37.970Z,91.40
2018-04-14T00:43:05.512Z,91.40
2018-04-14T00:45:33.104Z,91.30
2018-04-14T00:48:00.704Z,91.50
2018-04-14T00:50:28.656Z,91.80
2018-04-14T00:52:56.169Z,91.80
2018-04-14T00:55:23.704Z,91.50
2018-04-14T00:57:51.203Z,91.30
2018-04-14T01:00:18.727Z,91.30
2018-04-14T01:02:46.723Z,91.30
2018-04-14T01:05:14.645Z,91.70
2018-04-14T01:07:42.154Z,91.70
2018-04-14T01:10:09.684Z,92.00
2018-04-14T01:12:37.583Z,91.70
2018-04-14T01:15:05.513Z,91.80
2018-04-14T01:17:33.015Z,91.80
2018-04-14T01:20:00.532Z,92.20
2018-04-14T01:22:28.062Z,92.30
2018-04-14T01:24:55.562Z,92.10
2018-04-14T01:27:23.098Z,92.50
2018-04-14T01:29:51.089Z,92.60
2018-04-14T01:32:19.077Z,92.50
2018-04-14T01:34:46.999Z,92.40
2018-04-14T01:37:14.567Z,92.40
2018-04-14T01:39:42.547Z,92.20
2018-04-14T01:42:10.475Z,92.00
2018-04-14T01:44:37.989Z,92.00
2018-04-14T01:47:05.522Z,91.90
2018-04-14T01:49:33.037Z,92.10
2018-04-14T01:52:00.585Z,92.20
2018-04-14T01:54:28.493Z,92.10
2018-04-14T01:56:56.022Z,92.10
2018-04-14T01:59:23.532Z,92.40
2018-04-14T02:01:51.467Z,91.70
2018-04-14T02:04:18.981Z,91.70
2018-04-14T02:06:46.608Z,91.30
2018-04-14T02:09:14.498Z,91.90
2018-04-14T02:11:42.488Z,92.00
2018-04-14T02:14:10.075Z,92.00
2018-04-14T02:16:38.001Z,92.10
2018-04-14T02:19:05.540Z,92.10
2018-04-14T02:21:33.131Z,92.30
2018-04-14T02:24:00.640Z,92.60
2018-04-14T02:26:28.164Z,92.60
2018-04-14T02:28:55.671Z,92.50
2018-04-14T02:31:23.279Z,92.50
2018-04-14T02:33:51.171Z,92.10
2018-04-14T02:36:19.084Z,92.00
2018-04-14T02:38:46.589Z,92.10
2018-04-14T02:41:14.117Z,92.10
2018-04-14T02:43:41.633Z,92.50
2018-04-14T02:46:09.157Z,92.40
2018-04-14T02:48:36.655Z,92.60
2018-04-14T02:51:04.181Z,93.00
2018-04-14T02:53:31.708Z,92.90
2018-04-14T02:55:59.208Z,92.50
2018-04-14T02:58:26.733Z,92.60
2018-04-14T03:00:54.245Z,92.10
2018-04-14T03:03:21.759Z,92.20
2018-04-14T03:05:49.374Z,92.00
2018-04-14T03:08:17.279Z,91.80
2018-04-14T03:10:44.775Z,91.80
2018-04-14T03:13:12.288Z,91.80
2018-04-14T03:15:39.784Z,91.70
2018-04-14T03:18:07.291Z,92.30
2018-04-14T03:20:35.175Z,92.10
2018-04-14T03:23:02.768Z,92.10
2018-04-14T03:25:30.664Z,91.90
2018-04-14T03:27:58.593Z,91.70
2018-04-14T03:30:26.146Z,91.80
2018-04-14T03:32:54.052Z,91.30
2018-04-14T03:35:21.948Z,90.90
2018-04-14T03:37:49.472Z,90.90
2018-04-14T03:40:16.976Z,91.50
2018-04-14T03:42:44.582Z,91.30
2018-04-14T03:45:12.482Z,91.20
2018-04-14T03:47:40.460Z,91.10
2018-04-14T03:50:07.952Z,91.10
2018-04-14T03:52:35.881Z,90.70
2018-04-14T03:55:03.375Z,90.70
2018-04-14T03:57:30.912Z,91.20
2018-04-14T03:59:58.817Z,91.30
2018-04-14T04:02:26.731Z,91.40
2018-04-14T04:04:54.285Z,91.40
2018-04-14T04:07:22.190Z,90.60
2018-04-14T04:09:50.163Z,90.90
2018-04-14T04:12:17.748Z,90.80
2018-04-14T04:14:45.251Z,90.70
2018-04-14T04:17:13.233Z,90.90
2018-04-14T04:19:53.044Z,90.70
2018-04-14T04:22:32.396Z,90.70
2018-04-14T04:28:05.884Z,90.80
2018-04-14T04:30:33.419Z,90.30
2018-04-14T04:33:00.942Z,89.90
2018-04-14T04:35:28.456Z,90.00
2018-04-14T04:37:55.975Z,90.80
2018-04-14T04:40:23.573Z,91.40
2018-04-14T04:42:51.485Z,91.20
2018-04-14T04:45:19.044Z,91.20
2018-04-14T04:47:47.027Z,91.20
2018-04-14T04:50:14.532Z,91.20
2018-04-14T04:52:42.424Z,92.10
2018-04-14T04:55:10.337Z,93.20
2018-04-14T04:57:37.836Z,93.20
2018-04-14T05:00:05.463Z,93.50
2018-04-14T05:02:32.950Z,92.60
2018-04-14T05:05:00.468Z,92.60
2018-04-14T05:07:28.169Z,92.80
2018-04-14T05:09:55.709Z,93.00
2018-04-14T05:12:23.619Z,92.50
2018-04-14T05:14:51.528Z,92.40
2018-04-14T05:17:19.084Z,92.40
2018-04-14T05:19:47.005Z,93.90
2018-04-14T05:22:14.501Z,93.90
2018-04-14T05:24:42.011Z,93.80
2018-04-14T05:27:09.521Z,93.30
2018-04-14T05:29:37.031Z,93.60
2018-04-14T05:32:04.541Z,93.80
2018-04-14T05:34:32.056Z,93.80
2018-04-14T05:36:59.561Z,94.20
2018-04-14T05:39:27.546Z,94.40
2018-04-14T05:41:55.042Z,94.40
2018-04-14T05:44:22.965Z,93.60
2018-04-14T05:46:50.521Z,93.70
2018-04-14T05:49:18.502Z,93.70
2018-04-14T05:51:46.009Z,93.70
2018-04-14T05:54:13.531Z,93.70
2018-04-14T05:56:41.040Z,93.10
2018-04-14T05:59:08.565Z,92.50
2018-04-14T06:01:36.062Z,92.50
2018-04-14T06:04:03.583Z,92.00
2018-04-14T06:06:31.075Z,91.50
2018-04-14T06:08:58.687Z,91.00
2018-04-14T06:11:26.594Z,88.50
2018-04-14T06:13:54.148Z,88.50
2018-04-14T06:16:21.643Z,87.70
2018-04-14T06:18:49.561Z,87.10
2018-04-14T06:21:17.054Z,87.10
2018-04-14T06:23:44.561Z,87.00
2018-04-14T06:26:12.123Z,87.60
2018-04-14T06:28:39.687Z,87.80
2018-04-14T06:31:07.204Z,88.10
2018-04-14T06:33:34.713Z,88.80
2018-04-14T06:36:02.241Z,87.20
2018-04-14T06:38:29.815Z,87.30
2018-04-14T06:40:57.379Z,85.90
2018-04-14T06:43:24.876Z,85.60
2018-04-14T06:45:52.873Z,83.60
2018-04-14T06:48:20.760Z,83.90
2018-04-14T06:50:48.743Z,82.30
2018-04-14T06:53:16.252Z,82.20
2018-04-14T06:55:44.155Z,82.60
2018-04-14T06:58:11.661Z,82.60
2018-04-14T07:00:39.196Z,82.60
2018-04-14T07:03:07.079Z,82.30
2018-04-14T07:05:34.584Z,82.30
2018-04-14T07:08:02.483Z,82.10
2018-04-14T07:10:29.995Z,82.10
2018-04-14T07:12:57.540Z,81.50
2018-04-14T07:15:25.462Z,81.40
2018-04-14T07:17:52.967Z,81.40
2018-04-14T07:20:20.479Z,81.90
2018-04-14T07:22:47.990Z,82.10
2018-04-14T07:25:15.903Z,78.00
2018-04-14T07:27:43.452Z,78.00
2018-04-14T07:30:11.006Z,78.30
2018-04-14T07:32:38.508Z,77.60
2018-04-14T07:35:06.104Z,77.90
2018-04-14T07:37:34.048Z,77.80
2018-04-14T07:40:01.931Z,77.50
2018-04-14T07:42:29.443Z,77.50
2018-04-14T07:44:56.996Z,77.30
2018-04-14T07:47:24.479Z,76.90
2018-04-14T07:49:51.975Z,77.90
2018-04-14T07:52:19.496Z,78.40
2018-04-14T07:54:46.996Z,78.70
2018-04-14T07:57:14.918Z,76.90
2018-04-14T07:59:42.423Z,76.90
2018-04-14T08:02:10.061Z,76.70
2018-04-14T08:04:37.965Z,74.60
2018-04-14T08:07:05.496Z,74.60
2018-04-14T08:09:33.004Z,75.20
2018-04-14T08:12:00.528Z,75.80
2018-04-14T08:14:28.037Z,75.20
2018-04-14T08:16:55.554Z,75.20
2018-04-14T08:19:23.157Z,73.60
2018-04-14T08:21:51.171Z,74.20
2018-04-14T08:24:18.760Z,74.20
2018-04-14T08:26:46.285Z,74.00
2018-04-14T08:29:13.791Z,73.70
2018-04-14T08:31:41.317Z,72.40
2018-04-14T08:34:08.830Z,72.80
2018-04-14T08:36:36.358Z,73.10
2018-04-14T08:39:04.256Z,72.20
2018-04-14T08:41:32.170Z,73.00
2018-04-14T08:43:59.677Z,73.00
2018-04-14T08:46:27.192Z,72.00
2018-04-14T08:48:54.808Z,71.40
2018-04-14T08:51:22.376Z,71.60
2018-04-14T08:53:50.289Z,71.20
2018-04-14T08:56:17.823Z,71.20
2018-04-14T08:58:45.318Z,72.70
2018-04-14T09:01:12.846Z,72.30
2018-04-14T09:03:40.352Z,73.00
2018-04-14T09:06:07.859Z,73.00
2018-04-14T09:08:35.475Z,73.70
2018-04-14T09:11:03.388Z,71.00
2018-04-14T09:13:30.992Z,71.00
2018-04-14T09:15:58.483Z,71.20
2018-04-14T09:18:25.987Z,70.90
2018-04-14T09:20:53.503Z,71.70
2018-04-14T09:23:21.498Z,71.90
2018-04-14T09:25:49.493Z,71.50
2018-04-14T09:28:17.493Z,71.30
2018-04-14T09:30:45.072Z,71.30
2018-04-14T09:33:12.993Z,71.60
2018-04-14T09:35:40.549Z,71.60
2018-04-14T09:38:08.459Z,69.90
2018-04-14T09:40:36.352Z,70.10
2018-04-14T09:43:04.329Z,70.70
2018-04-14T09:45:32.223Z,69.50
2018-04-14T09:48:00.155Z,70.10
2018-04-14T09:50:27.697Z,70.10
2018-04-14T09:52:55.696Z,69.90
2018-04-14T09:55:23.587Z,70.90
2018-04-14T09:57:51.495Z,71.50
2018-04-14T10:00:24.658Z,71.50
2018-04-14T10:02:52.164Z,71.50
2018-04-14T10:05:19.670Z,71.80
2018-04-14T10:07:47.593Z,70.80
2018-04-14T10:10:15.088Z,70.80
2018-04-14T10:12:42.604Z,70.70
2018-04-14T10:15:10.111Z,70.90
2018-04-14T10:17:38.091Z,71.50
2018-04-14T10:20:05.992Z,71.00
2018-04-14T10:22:33.908Z,70.90
2018-04-14T10:25:01.422Z,70.90
2018-04-14T10:27:28.942Z,71.10
2018-04-14T10:29:56.451Z,70.60
2018-04-14T10:32:24.024Z,70.30
2018-04-14T10:34:51.488Z,71.20
2018-04-14T10:37:19.017Z,69.80
2018-04-14T10:39:46.561Z,69.60
2018-04-14T10:42:14.154Z,68.80
2018-04-14T10:44:42.047Z,68.40
2018-04-14T10:47:09.553Z,68.40
2018-04-14T10:49:37.111Z,69.70
2018-04-14T10:52:04.995Z,68.90
2018-04-14T10:54:32.600Z,68.90
2018-04-14T10:57:00.502Z,67.50
2018-04-14T10:59:28.412Z,66.50
2018-04-14T11:01:55.920Z,66.40
2018-04-14T11:04:23.457Z,67.70
2018-04-14T11:06:51.344Z,67.50
2018-04-14T11:09:19.288Z,66.40
2018-04-14T11:11:46.816Z,66.40
2018-04-14T11:14:14.729Z,68.10
2018-04-14T11:16:42.223Z,68.10
2018-04-14T11:19:09.737Z,66.50
2018-04-14T11:21:37.267Z,65.70
2018-04-14T11:24:05.188Z,65.00
2018-04-14T11:26:32.679Z,65.00
2018-04-14T11:29:00.197Z,63.90
2018-04-14T11:31:27.695Z,64.60
2018-04-14T11:33:55.224Z,64.20
2018-04-14T11:36:22.729Z,65.10
2018-04-14T11:38:50.253Z,64.00
2018-04-14T11:41:18.154Z,63.80
2018-04-14T11:43:46.073Z,64.10
2018-04-14T11:46:13.572Z,64.10
2018-04-14T11:48:41.118Z,65.00
2018-04-14T11:51:09.117Z,63.90
2018-04-14T11:53:37.018Z,64.80
2018-04-14T11:56:04.523Z,64.80
2018-04-14T11:58:32.065Z,65.10
2018-04-14T12:00:59.966Z,64.10
2018-04-14T12:03:27.879Z,64.00
2018-04-14T12:05:55.385Z,64.00
2018-04-14T12:08:22.999Z,63.90
2018-04-14T12:10:50.500Z,63.60
2018-04-14T12:13:18.408Z,62.90
2018-04-14T12:15:45.941Z,62.90
2018-04-14T12:18:13.435Z,62.90
2018-04-14T12:20:40.939Z,62.70
2018-04-14T12:23:08.518Z,62.40
2018-04-14T12:25:36.101Z,61.70
2018-04-14T12:28:03.613Z,62.40
2018-04-14T12:30:31.593Z,62.20
2018-04-14T12:32:59.491Z,61.20
2018-04-14T12:35:27.399Z,61.80
2018-04-14T12:37:59.388Z,61.80
2018-04-14T12:40:27.286Z,61.50
2018-04-14T12:42:54.801Z,61.50
2018-04-14T12:45:22.320Z,63.10
2018-04-14T12:47:50.250Z,64.30
2018-04-14T12:50:17.791Z,64.30
2018-04-14T12:52:45.396Z,62.50
2018-04-14T12:55:13.295Z,63.40
2018-04-14T12:57:41.193Z,63.20
2018-04-14T13:00:08.861Z,63.20
2018-04-14T13:02:36.748Z,61.70
2018-04-14T13:05:04.263Z,61.70
2018-04-14T13:07:31.765Z,62.60
2018-04-14T13:09:59.284Z,61.70
2018-04-14T13:12:26.889Z,61.90
2018-04-14T13:14:54.819Z,61.30
2018-04-14T13:17:22.355Z,61.30
2018-04-14T13:19:49.877Z,61.00
2018-04-14T13:22:17.380Z,61.40
2018-04-14T13:24:44.937Z,61.20
2018-04-14T13:27:12.903Z,61.40
2018-04-14T13:29:40.422Z,61.40
2018-04-14T13:32:07.930Z,62.50
2018-04-14T13:34:35.468Z,61.60
2018-04-14T13:37:03.052Z,61.70
2018-04-14T13:39:30.969Z,59.50
2018-04-14T13:41:58.479Z,59.50
2018-04-14T13:44:25.978Z,59.40
2018-04-14T13:46:53.483Z,59.00
2018-04-14T13:49:20.987Z,59.40
2018-04-14T13:51:48.956Z,59.90
2018-04-14T13:54:16.539Z,59.90
2018-04-14T13:56:44.043Z,60.40
2018-04-14T13:59:11.932Z,60.30
2018-04-14T14:01:39.915Z,62.50
2018-04-14T14:04:07.406Z,62.50
2018-04-14T14:06:35.395Z,60.90
2018-04-14T14:09:02.918Z,60.90
2018-04-14T14:11:30.423Z,60.00
2018-04-14T14:13:57.925Z,60.10
2018-04-14T14:16:25.435Z,60.40
2018-04-14T14:18:53.323Z,59.70
2018-04-14T14:21:21.334Z,60.00
2018-04-14T14:23:49.233Z,61.50
2018-04-14T14:26:16.784Z,61.40
2018-04-14T14:28:44.292Z,61.70
2018-04-14T14:31:12.201Z,61.30
2018-04-14T14:33:39.716Z,61.30
2018-04-14T14:36:07.238Z,61.10
2018-04-14T14:38:34.745Z,61.40
2018-04-14T14:41:02.304Z,62.20
2018-04-14T14:43:29.795Z,62.00
2018-04-14T14:45:57.717Z,60.90
2018-04-14T14:48:25.222Z,60.90
2018-04-14T14:50:52.748Z,61.10
2018-04-14T14:53:20.240Z,61.50
2018-04-14T14:55:48.167Z,62.40
2018-04-14T14:58:15.655Z,62.40
2018-04-14T15:00:43.183Z,62.40
2018-04-14T15:03:10.678Z,63.80
2018-04-14T15:05:38.191Z,63.60
2018-04-14T15:08:05.739Z,63.60
2018-04-14T15:10:33.227Z,63.10
2018-04-14T15:13:00.739Z,63.20
2018-04-14T15:15:28.300Z,63.10
2018-04-14T15:17:56.219Z,63.20
2018-04-14T15:20:23.771Z,63.20
2018-04-14T15:22:51.288Z,62.80
2018-04-14T15:25:18.888Z,62.40
2018-04-14T15:27:46.384Z,62.80
2018-04-14T15:30:13.892Z,62.80
2018-04-14T15:32:41.407Z,63.10
2018-04-14T15:35:09.298Z,62.10
2018-04-14T15:37:37.213Z,62.60
2018-04-14T15:40:04.721Z,62.60
2018-04-14T15:42:32.240Z,61.40
2018-04-14T15:45:00.151Z,62.10
2018-04-14T15:47:28.059Z,61.90
2018-04-14T15:49:55.621Z,61.90
2018-04-14T15:52:23.538Z,62.30
2018-04-14T15:54:51.053Z,62.30
2018-04-14T15:57:18.568Z,62.40
2018-04-14T15:59:46.073Z,62.10
2018-04-14T16:02:14.053Z,63.00
2018-04-14T16:04:41.943Z,63.00
2018-04-14T16:07:10.041Z,63.30
2018-04-14T16:09:37.944Z,62.80
2018-04-14T16:12:05.489Z,62.80
2018-04-14T16:14:32.987Z,63.40
2018-04-14T16:17:00.606Z,63.20
2018-04-14T16:19:28.503Z,62.80
2018-04-14T16:21:56.015Z,62.80
2018-04-14T16:24:23.521Z,62.60
2018-04-14T16:26:51.039Z,62.40
2018-04-14T16:29:18.943Z,62.30
2018-04-14T16:31:46.499Z,62.30
2018-04-14T16:34:14.008Z,62.30
2018-04-14T16:36:41.990Z,62.60
2018-04-14T16:39:09.892Z,62.50
2018-04-14T16:41:37.802Z,62.60
2018-04-14T16:44:05.370Z,62.60
2018-04-14T16:46:33.266Z,63.60
2018-04-14T16:49:01.251Z,63.40
2018-04-14T16:51:29.144Z,62.50
2018-04-14T16:53:56.719Z,62.50
2018-04-14T16:56:24.207Z,62.60
2018-04-14T16:58:52.192Z,63.80
2018-04-14T17:01:19.679Z,63.80
2018-04-14T17:03:47.192Z,63.90
2018-04-14T17:06:14.754Z,63.70
2018-04-14T17:08:42.673Z,63.80
2018-04-14T17:11:10.181Z,63.80
2018-04-14T17:13:37.704Z,63.10
2018-04-14T17:16:05.211Z,63.00
2018-04-14T17:18:33.184Z,64.10
2018-04-14T17:21:00.777Z,64.10
2018-04-14T17:23:28.777Z,63.70
2018-04-14T17:25:56.354Z,63.70
2018-04-14T17:28:24.349Z,64.90
2018-04-14T17:30:52.243Z,64.60
2018-04-14T17:33:20.131Z,64.90
2018-04-14T17:35:47.644Z,64.90
2018-04-14T17:38:15.197Z,64.90
2018-04-14T17:40:43.104Z,65.10
2018-04-14T17:43:11.005Z,65.10
2018-04-14T17:45:38.515Z,65.00
2018-04-14T17:48:06.026Z,65.40
2018-04-14T17:50:33.663Z,65.50
2018-04-14T17:53:01.627Z,65.90
2018-04-14T17:55:29.161Z,65.90
2018-04-14T17:57:56.709Z,66.30
2018-04-14T18:00:24.655Z,67.40
2018-04-14T18:02:52.158Z,67.40
2018-04-14T18:05:19.772Z,68.30
2018-04-14T18:07:47.751Z,68.90
2018-04-14T18:10:15.263Z,68.80
2018-04-14T18:12:42.765Z,68.30
2018-04-14T18:15:10.307Z,68.70
2018-04-14T18:17:38.203Z,68.10
2018-04-14T18:20:06.205Z,68.20
2018-04-14T18:22:34.129Z,68.60
2018-04-14T18:25:01.677Z,68.60
2018-04-14T18:27:29.599Z,68.40
2018-04-14T18:29:57.166Z,68.40
2018-04-14T18:32:25.085Z,68.90
2018-04-14T18:34:52.597Z,68.90
2018-04-14T18:37:20.123Z,68.70
2018-04-14T18:39:48.099Z,69.20
2018-04-14T18:42:15.632Z,69.20
2018-04-14T18:44:43.145Z,69.10
2018-04-14T18:47:10.677Z,68.70
2018-04-14T18:49:38.252Z,68.60
2018-04-14T18:52:06.241Z,68.70
2018-04-14T18:54:34.140Z,68.40
2018-04-14T18:57:02.198Z,68.60
2018-04-14T18:59:29.706Z,68.60
2018-04-14T19:01:57.826Z,68.30
2018-04-14T19:04:25.366Z,68.30
2018-04-14T19:06:52.884Z,69.20
2018-04-14T19:09:20.775Z,69.10
2018-04-14T19:11:48.774Z,69.60
2018-04-14T19:14:16.767Z,68.90
2018-04-14T19:16:44.748Z,69.90
2018-04-14T19:19:12.350Z,69.90
2018-04-14T19:21:40.269Z,69.80
2018-04-14T19:24:07.778Z,69.80
2018-04-14T19:26:35.309Z,69.50
2018-04-14T19:29:03.214Z,70.70
2018-04-14T19:31:30.731Z,70.70
2018-04-14T19:33:58.260Z,71.00
2018-04-14T19:36:26.188Z,70.40
2018-04-14T19:38:53.696Z,70.40
2018-04-14T19:41:21.324Z,70.20
2018-04-14T19:43:49.234Z,70.20
2018-04-14T19:46:16.800Z,70.20
2018-04-14T19:48:44.806Z,69.90
2018-04-14T19:51:12.789Z,69.30
2018-04-14T19:53:40.791Z,69.30
2018-04-14T19:56:08.696Z,69.60
2018-04-14T19:58:36.607Z,70.00
2018-04-14T20:01:04.104Z,70.00
2018-04-14T20:03:31.627Z,69.90
2018-04-14T20:05:59.233Z,70.20
2018-04-14T20:08:27.152Z,70.70
2018-04-14T20:10:54.711Z,70.70
2018-04-14T20:13:22.672Z,70.80
2018-04-14T20:15:50.200Z,70.80
2018-04-14T20:18:17.736Z,71.30
2018-04-14T20:20:45.249Z,72.00
2018-04-14T20:23:13.167Z,72.60
2018-04-14T20:25:40.729Z,72.60
2018-04-14T20:28:08.720Z,73.00
2018-04-14T20:30:36.717Z,73.60
2018-04-14T20:33:04.631Z,74.10
2018-04-14T20:35:32.188Z,74.10
2018-04-14T20:37:59.771Z,74.20
2018-04-14T20:40:27.370Z,72.40
2018-04-14T20:42:55.283Z,73.80
2018-04-14T20:45:22.831Z,73.80
2018-04-14T20:47:50.414Z,74.30
2018-04-14T20:50:17.999Z,74.80
2018-04-14T20:52:45.590Z,74.40
2018-04-14T20:55:13.042Z,74.00
2018-04-14T20:57:40.655Z,74.60
2018-04-14T21:00:08.576Z,74.50
2018-04-14T21:02:36.093Z,74.50
2018-04-14T21:05:03.605Z,74.40
2018-04-14T21:07:31.128Z,75.10
2018-04-14T21:09:58.690Z,75.00
2018-04-14T21:12:26.583Z,74.40
2018-04-14T21:14:54.158Z,74.40
2018-04-14T21:17:21.665Z,74.90
2018-04-14T21:19:49.571Z,76.30
2018-04-14T21:22:17.077Z,76.30
2018-04-14T21:24:44.707Z,76.30
2018-04-14T21:27:12.288Z,76.70
2018-04-14T21:29:39.805Z,76.10
2018-04-14T21:32:07.313Z,76.00
2018-04-14T21:34:34.847Z,76.40
2018-04-14T21:37:02.354Z,76.20
2018-04-14T21:39:29.915Z,76.50
2018-04-14T21:41:57.426Z,76.50
2018-04-14T21:44:24.973Z,76.10
2018-04-14T21:46:52.477Z,76.00
2018-04-14T21:49:20.456Z,76.20
2018-04-14T21:51:47.978Z,76.20
2018-04-14T21:54:15.517Z,76.70
2018-04-14T21:56:43.034Z,76.80
2018-04-14T21:59:10.555Z,76.70
2018-04-14T22:01:38.052Z,77.10
2018-04-14T22:04:05.581Z,76.80
2018-04-14T22:06:33.484Z,76.40
2018-04-14T22:09:00.994Z,76.40
2018-04-14T22:11:28.519Z,76.60
2018-04-14T22:13:56.033Z,76.60
2018-04-14T22:16:23.543Z,76.90
2018-04-14T22:18:51.054Z,76.90
2018-04-14T22:21:18.585Z,77.20
2018-04-14T22:23:46.087Z,77.00
2018-04-14T22:26:13.613Z,76.90
2018-04-14T22:28:41.111Z,77.20
2018-04-14T22:31:09.037Z,77.40
2018-04-14T22:33:36.542Z,77.40
2018-04-14T22:36:04.059Z,76.90
2018-04-14T22:38:31.572Z,77.60
2018-04-14T22:40:59.463Z,76.70
2018-04-14T22:43:27.389Z,76.90
2018-04-14T22:45:54.896Z,76.90
2018-04-14T22:48:22.412Z,77.20
2018-04-14T22:50:49.916Z,77.60
2018-04-14T22:53:17.739Z,77.80
2018-04-14T22:55:45.245Z,78.20
2018-04-14T22:58:12.857Z,78.50
2018-04-14T23:00:40.846Z,79.30
2018-04-14T23:03:08.764Z,79.80
2018-04-14T23:05:36.274Z,79.80
2018-04-14T23:08:03.801Z,79.70
2018-04-14T23:10:31.396Z,80.50
2018-04-14T23:12:59.337Z,80.80
2018-04-14T23:15:26.854Z,80.80
2018-04-14T23:17:54.386Z,80.60
2018-04-14T23:20:21.935Z,80.40
2018-04-14T23:22:49.845Z,79.30
2018-04-14T23:25:17.359Z,79.20
2018-04-14T23:27:44.885Z,79.70
2018-04-14T23:30:12.481Z,80.00
2018-04-14T23:32:40.401Z,80.90
2018-04-14T23:35:07.953Z,80.90
2018-04-14T23:37:35.880Z,81.00
2018-04-14T23:40:03.389Z,81.00
2018-04-14T23:42:30.908Z,81.00
2018-04-14T23:44:58.403Z,81.10
2018-04-14T23:47:26.326Z,81.80
2018-04-14T23:49:53.833Z,81.80
2018-04-14T23:52:21.350Z,82.30
2018-04-14T23:54:48.842Z,82.60
2018-04-14T23:57:16.837Z,83.70
2018-04-14T23:59:44.726Z,84.20
